createdAt,value
2018-04-26T00:00:08.504Z,99497.59
2018-04-26T00:02:34.427Z,99506.56
2018-04-26T00:05:00.351Z,99505.55
2018-04-26T00:07:26.288Z,99509.08
2018-04-26T00:09:52.269Z,99508.78
2018-04-26T00:12:18.213Z,99504.52
2018-04-26T00:14:44.162Z,99502.28
2018-04-26T00:17:10.108Z,99505.00
2018-04-26T00:19:36.033Z,99509.55
2018-04-26T00:22:01.971Z,99493.84
2018-04-26T00:24:27.911Z,99489.23
2018-04-26T00:26:53.865Z,99490.20
2018-04-26T00:29:19.795Z,99494.00
2018-04-26T00:31:45.717Z,99488.40
2018-04-26T00:34:11.680Z,99496.30
2018-04-26T00:36:37.620Z,99488.88
2018-04-26T00:39:03.556Z,99481.39
2018-04-26T00:41:29.504Z,99494.16
2018-04-26T00:43:55.460Z,99489.20
2018-04-26T00:46:21.424Z,99489.91
2018-04-26T00:48:47.351Z,99490.55
2018-04-26T00:51:13.273Z,99487.80
2018-04-26T00:53:39.215Z,99480.94
2018-04-26T00:56:05.166Z,99484.83
2018-04-26T00:58:31.123Z,99484.17
2018-04-26T01:00:57.044Z,99473.64
2018-04-26T01:03:22.977Z,99478.66
2018-04-26T01:05:48.905Z,99478.49
2018-04-26T01:08:14.856Z,99477.30
2018-04-26T01:10:40.828Z,99479.23
2018-04-26T01:13:06.784Z,99482.13
2018-04-26T01:15:32.724Z,99472.58
2018-04-26T01:17:58.659Z,99476.02
2018-04-26T01:20:24.610Z,99473.42
2018-04-26T01:22:50.550Z,99471.55
2018-04-26T01:25:16.476Z,99474.16
2018-04-26T01:27:42.429Z,99472.35
2018-04-26T01:30:08.373Z,99468.20
2018-04-26T01:32:34.307Z,99480.91
2018-04-26T01:35:00.246Z,99478.20
2018-04-26T01:37:26.195Z,99478.52
2018-04-26T01:39:52.189Z,99474.38
2018-04-26T01:42:18.144Z,99474.42
2018-04-26T01:44:44.105Z,99471.63
2018-04-26T01:47:10.030Z,99464.61
2018-04-26T01:49:36.008Z,99459.63
2018-04-26T01:52:01.949Z,99466.44
2018-04-26T01:54:27.909Z,99473.56
2018-04-26T01:56:53.868Z,99464.95
2018-04-26T01:59:19.823Z,99467.75
2018-04-26T02:01:45.775Z,99478.58
2018-04-26T02:11:47.197Z,99475.17
2018-04-26T02:21:46.952Z,99463.99
2018-04-26T02:24:16.234Z,99463.52
2018-04-26T02:29:18.541Z,99467.08
2018-04-26T02:31:44.502Z,99469.89
2018-04-26T02:34:10.448Z,99471.52
2018-04-26T02:36:40.293Z,99469.75
2018-04-26T02:39:07.240Z,99472.74
2018-04-26T02:44:04.422Z,99486.41
2018-04-26T02:46:34.445Z,99484.84
2018-04-26T02:49:00.392Z,99483.08
2018-04-26T02:51:26.341Z,99474.72
2018-04-26T02:53:52.273Z,99489.98
2018-04-26T02:56:18.208Z,99491.19
2018-04-26T02:58:44.164Z,99488.32
2018-04-26T03:01:10.104Z,99498.46
2018-04-26T03:03:36.062Z,99493.91
2018-04-26T03:06:02.031Z,99491.53
2018-04-26T03:08:27.992Z,99491.08
2018-04-26T03:10:53.928Z,99487.56
2018-04-26T03:13:19.852Z,99480.76
2018-04-26T03:15:45.801Z,99475.50
2018-04-26T03:18:11.775Z,99480.66
2018-04-26T03:20:37.739Z,99475.15
2018-04-26T03:23:03.703Z,99485.41
2018-04-26T03:25:29.658Z,99480.35
2018-04-26T03:27:55.615Z,99479.95
2018-04-26T03:30:21.613Z,99481.11
2018-04-26T03:32:47.571Z,99489.77
2018-04-26T03:35:13.534Z,99487.19
2018-04-26T03:37:39.485Z,99483.89
2018-04-26T03:40:05.436Z,99477.41
2018-04-26T03:42:31.398Z,99478.27
2018-04-26T03:44:57.342Z,99471.70
2018-04-26T03:47:23.301Z,99465.47
2018-04-26T03:49:49.263Z,99465.90
2018-04-26T03:52:15.199Z,99465.84
2018-04-26T03:54:41.160Z,99471.39
2018-04-26T03:57:07.104Z,99467.28
2018-04-26T03:59:33.028Z,99476.58
2018-04-26T04:01:58.975Z,99476.56
2018-04-26T04:04:24.909Z,99475.80
2018-04-26T04:06:50.862Z,99472.23
2018-04-26T04:09:16.795Z,99466.28
2018-04-26T04:11:42.738Z,99467.50
2018-04-26T04:14:08.696Z,99472.65
2018-04-26T04:16:34.636Z,99475.25
2018-04-26T04:19:00.584Z,99478.93
2018-04-26T04:21:26.531Z,99478.05
2018-04-26T04:23:52.475Z,99474.31
2018-04-26T04:26:18.424Z,99483.37
2018-04-26T04:28:44.366Z,99484.17
2018-04-26T04:31:10.312Z,99486.00
2018-04-26T04:33:36.288Z,99480.95
2018-04-26T04:36:02.238Z,99478.78
2018-04-26T04:38:28.178Z,99483.28
2018-04-26T04:40:54.119Z,99484.47
2018-04-26T04:43:20.088Z,99485.66
2018-04-26T04:45:46.024Z,99489.80
2018-04-26T04:48:11.969Z,99478.80
2018-04-26T04:50:37.910Z,99482.42
2018-04-26T04:53:03.842Z,99478.39
2018-04-26T04:55:29.780Z,99487.59
2018-04-26T04:57:55.724Z,99488.55
2018-04-26T05:00:21.679Z,99489.27
2018-04-26T05:02:47.619Z,99500.33
2018-04-26T05:05:13.559Z,99498.64
2018-04-26T05:07:39.517Z,99498.23
2018-04-26T05:10:05.442Z,99511.14
2018-04-26T05:12:31.390Z,99520.95
2018-04-26T05:14:57.344Z,99522.21
2018-04-26T05:17:23.281Z,99529.23
2018-04-26T05:19:49.405Z,99537.65
2018-04-26T05:22:15.224Z,99543.00
2018-04-26T05:24:41.182Z,99550.44
2018-04-26T05:27:07.137Z,99558.39
2018-04-26T05:29:33.096Z,99558.84
2018-04-26T05:31:59.048Z,99555.82
2018-04-26T05:34:25.001Z,99557.20
2018-04-26T05:36:50.974Z,99565.50
2018-04-26T05:39:16.933Z,99558.23
2018-04-26T05:41:42.888Z,99568.08
2018-04-26T05:44:08.843Z,99570.38
2018-04-26T05:46:34.789Z,99571.80
2018-04-26T05:49:00.717Z,99576.48
2018-04-26T05:51:26.659Z,99579.30
2018-04-26T05:53:52.608Z,99579.47
2018-04-26T05:56:18.561Z,99586.72
2018-04-26T05:58:44.501Z,99569.28
2018-04-26T06:01:10.464Z,99572.70
2018-04-26T06:03:36.574Z,99593.80
2018-04-26T06:06:02.603Z,99592.05
2018-04-26T06:08:28.565Z,99591.50
2018-04-26T06:10:54.518Z,99589.48
2018-04-26T06:13:20.472Z,99584.20
2018-04-26T06:15:46.402Z,99586.09
2018-04-26T06:18:12.366Z,99580.80
2018-04-26T06:20:38.326Z,99571.50
2018-04-26T06:23:04.279Z,99559.84
2018-04-26T06:25:30.215Z,99566.14
2018-04-26T06:27:56.184Z,99580.21
2018-04-26T06:30:22.112Z,99579.59
2018-04-26T06:32:48.060Z,99575.30
2018-04-26T06:35:13.993Z,99567.13
2018-04-26T06:37:39.950Z,99578.05
2018-04-26T06:40:05.900Z,99578.14
2018-04-26T06:42:31.877Z,99588.03
2018-04-26T06:44:57.806Z,99577.73
2018-04-26T06:47:23.747Z,99574.75
2018-04-26T06:49:49.685Z,99580.30
2018-04-26T06:52:15.642Z,99590.41
2018-04-26T06:54:41.597Z,99593.01
2018-04-26T06:57:07.539Z,99597.95
2018-04-26T06:59:33.483Z,99594.88
2018-04-26T07:01:59.466Z,99599.05
2018-04-26T07:04:25.384Z,99595.20
2018-04-26T07:06:51.380Z,99602.81
2018-04-26T07:09:17.338Z,99599.59
2018-04-26T07:11:43.269Z,99599.80
2018-04-26T07:14:09.273Z,99598.86
2018-04-26T07:16:35.316Z,99599.46
2018-04-26T07:19:02.405Z,99605.48
2018-04-26T07:21:28.371Z,99612.72
2018-04-26T07:23:54.361Z,99603.83
2018-04-26T07:26:20.305Z,99608.53
2018-04-26T07:28:46.282Z,99606.22
2018-04-26T07:31:12.239Z,99607.83
2018-04-26T07:33:38.225Z,99599.73
2018-04-26T07:36:04.149Z,99612.33
2018-04-26T07:38:30.105Z,99609.44
2018-04-26T07:40:56.039Z,99602.24
2018-04-26T07:43:22.026Z,99607.08
2018-04-26T07:45:47.970Z,99612.47
2018-04-26T07:48:13.930Z,99609.59
2018-04-26T07:50:39.892Z,99611.67
2018-04-26T07:53:05.936Z,99615.47
2018-04-26T07:55:31.832Z,99611.44
2018-04-26T07:57:57.773Z,99626.69
2018-04-26T08:00:23.723Z,99606.74
2018-04-26T08:02:49.688Z,99609.37
2018-04-26T08:05:15.626Z,99604.11
2018-04-26T08:07:41.578Z,99614.45
2018-04-26T08:10:07.527Z,99625.22
2018-04-26T08:12:33.521Z,99629.41
2018-04-26T08:14:59.463Z,99615.91
2018-04-26T08:17:25.380Z,99625.66
2018-04-26T08:19:54.503Z,99630.48
2018-04-26T08:22:20.447Z,99632.39
2018-04-26T08:24:46.481Z,99629.97
2018-04-26T08:27:12.448Z,99625.84
2018-04-26T08:29:38.397Z,99625.55
2018-04-26T08:32:04.333Z,99628.76
2018-04-26T08:34:30.286Z,99636.92
2018-04-26T08:36:56.312Z,99634.33
2018-04-26T08:39:22.237Z,99639.13
2018-04-26T08:41:48.192Z,99645.73
2018-04-26T08:44:14.184Z,99653.78
2018-04-26T08:46:40.162Z,99636.41
2018-04-26T08:49:06.130Z,99644.23
2018-04-26T08:51:32.063Z,99644.75
2018-04-26T08:53:58.036Z,99640.38
2018-04-26T08:56:24.024Z,99645.27
2018-04-26T08:58:50.013Z,99650.87
2018-04-26T09:01:15.945Z,99643.01
2018-04-26T09:03:41.907Z,99640.67
2018-04-26T09:06:07.874Z,99642.01
2018-04-26T09:08:33.992Z,99654.94
2018-04-26T09:11:00.485Z,99660.72
2018-04-26T09:13:26.441Z,99659.67
2018-04-26T09:15:52.512Z,99660.95
2018-04-26T09:18:18.406Z,99661.44
2018-04-26T09:20:44.336Z,99674.69
2018-04-26T09:23:10.263Z,99676.84
2018-04-26T09:25:36.214Z,99671.07
2018-04-26T09:28:02.152Z,99680.41
2018-04-26T09:30:28.129Z,99679.43
2018-04-26T09:32:54.103Z,99663.97
2018-04-26T09:35:20.097Z,99663.96
2018-04-26T09:37:46.064Z,99666.03
2018-04-26T09:40:12.050Z,99678.92
2018-04-26T09:42:38.002Z,99672.38
2018-04-26T09:45:03.968Z,99669.94
2018-04-26T09:47:29.954Z,99673.77
2018-04-26T09:49:55.934Z,99661.45
2018-04-26T09:52:21.872Z,99668.48
2018-04-26T09:54:47.842Z,99672.95
2018-04-26T09:57:13.796Z,99662.34
2018-04-26T09:59:39.749Z,99661.36
2018-04-26T10:02:05.703Z,99653.09
2018-04-26T10:04:31.665Z,99664.53
2018-04-26T10:06:57.600Z,99657.41
2018-04-26T10:09:23.593Z,99656.36
2018-04-26T10:11:49.528Z,99644.52
2018-04-26T10:14:15.501Z,99650.94
2018-04-26T10:16:41.448Z,99639.98
2018-04-26T10:19:07.378Z,99648.91
2018-04-26T10:21:33.329Z,99645.05
2018-04-26T10:23:59.290Z,99653.03
2018-04-26T10:26:25.228Z,99636.56
2018-04-26T10:28:51.175Z,99651.95
2018-04-26T10:31:17.131Z,99656.02
2018-04-26T10:33:43.053Z,99655.41
2018-04-26T10:36:09.002Z,99643.34
2018-04-26T10:38:34.954Z,99650.40
2018-04-26T10:41:00.902Z,99656.75
2018-04-26T10:43:26.863Z,99657.75
2018-04-26T10:45:52.812Z,99651.45
2018-04-26T10:48:18.767Z,99647.87
2018-04-26T10:50:44.718Z,99656.94
2018-04-26T10:53:10.658Z,99653.97
2018-04-26T10:55:36.635Z,99663.14
2018-04-26T10:58:02.621Z,99671.01
2018-04-26T11:00:28.613Z,99677.03
2018-04-26T11:02:54.562Z,99692.02
2018-04-26T11:05:20.529Z,99702.77
2018-04-26T11:07:46.581Z,99705.50
2018-04-26T11:10:12.544Z,99703.75
2018-04-26T11:12:38.472Z,99689.74
2018-04-26T11:15:05.486Z,99691.95
2018-04-26T11:17:31.446Z,99685.77
2018-04-26T11:19:57.501Z,99687.48
2018-04-26T11:22:23.457Z,99683.16
2018-04-26T11:24:49.397Z,99689.01
2018-04-26T11:27:15.345Z,99687.06
2018-04-26T11:29:41.308Z,99679.03
2018-04-26T11:32:07.254Z,99682.25
2018-04-26T11:34:33.211Z,99677.43
2018-04-26T11:36:59.169Z,99679.20
2018-04-26T11:39:25.113Z,99688.97
2018-04-26T11:41:51.083Z,99700.47
2018-04-26T11:44:17.032Z,99688.55
2018-04-26T11:46:42.975Z,99702.88
2018-04-26T11:49:08.948Z,99711.39
2018-04-26T11:51:34.956Z,99710.27
2018-04-26T11:54:00.984Z,99702.09
2018-04-26T11:56:27.025Z,99696.89
2018-04-26T11:58:52.961Z,99699.78
2018-04-26T12:01:18.909Z,99702.42
2018-04-26T12:03:44.845Z,99701.79
2018-04-26T12:06:10.793Z,99730.39
2018-04-26T12:08:36.742Z,99736.82
2018-04-26T12:11:02.696Z,99759.13
2018-04-26T12:13:28.655Z,99769.20
2018-04-26T12:15:54.595Z,99763.23
2018-04-26T12:18:20.525Z,99773.55
2018-04-26T12:20:46.501Z,99757.36
2018-04-26T12:23:12.474Z,99754.16
2018-04-26T12:25:38.436Z,99732.31
2018-04-26T12:28:04.394Z,99743.13
2018-04-26T12:30:30.370Z,99733.34
2018-04-26T12:32:56.298Z,99735.38
2018-04-26T12:35:22.223Z,99726.91
2018-04-26T12:37:48.154Z,99722.23
2018-04-26T12:40:14.079Z,99727.93
2018-04-26T12:42:40.032Z,99727.31
2018-04-26T12:45:05.979Z,99726.53
2018-04-26T12:47:31.935Z,99728.13
2018-04-26T12:49:57.869Z,99728.96
2018-04-26T12:52:23.784Z,99725.28
2018-04-26T12:54:49.737Z,99735.86
2018-04-26T12:57:15.681Z,99729.07
2018-04-26T12:59:41.618Z,99733.48
2018-04-26T13:02:07.568Z,99727.77
2018-04-26T13:04:33.510Z,99722.38
2018-04-26T13:06:59.437Z,99732.75
2018-04-26T13:09:25.367Z,99728.08
2018-04-26T13:11:51.322Z,99770.66
2018-04-26T13:14:17.275Z,99768.74
2018-04-26T13:16:43.210Z,99769.30
2018-04-26T13:19:09.146Z,99760.98
2018-04-26T13:21:35.115Z,99757.05
2018-04-26T13:24:01.209Z,99758.17
2018-04-26T13:26:27.161Z,99752.34
2018-04-26T13:28:53.096Z,99757.22
2018-04-26T13:31:19.083Z,99754.45
2018-04-26T13:33:45.025Z,99759.05
2018-04-26T13:36:11.011Z,99758.27
2018-04-26T13:38:36.950Z,99756.28
2018-04-26T13:41:02.899Z,99758.30
2018-04-26T13:43:28.831Z,99747.66
2018-04-26T13:45:54.784Z,99753.24
2018-04-26T13:48:20.744Z,99756.70
2018-04-26T13:50:46.697Z,99751.50
2018-04-26T13:53:12.672Z,99758.95
2018-04-26T13:55:38.641Z,99750.92
2018-04-26T13:58:04.570Z,99760.87
2018-04-26T14:00:30.521Z,99766.56
2018-04-26T14:02:56.495Z,99768.67
2018-04-26T14:05:22.436Z,99774.99
2018-04-26T14:07:48.389Z,99772.84
2018-04-26T14:10:14.336Z,99788.66
2018-04-26T14:12:40.265Z,99777.03
2018-04-26T14:15:06.227Z,99772.63
2018-04-26T14:17:32.192Z,99772.23
2018-04-26T14:19:58.158Z,99779.89
2018-04-26T14:22:24.121Z,99765.19
2018-04-26T14:24:50.097Z,99776.62
2018-04-26T14:27:16.049Z,99764.30
2018-04-26T14:29:42.440Z,99770.78
2018-04-26T14:32:08.358Z,99767.02
2018-04-26T14:34:34.342Z,99774.58
2018-04-26T14:37:00.285Z,99780.96
2018-04-26T14:39:26.250Z,99790.29
2018-04-26T14:41:52.189Z,99779.16
2018-04-26T14:44:18.188Z,99796.13
2018-04-26T14:46:44.139Z,99783.45
2018-04-26T14:49:10.188Z,99783.53
2018-04-26T14:51:36.156Z,99774.78
2018-04-26T14:54:02.132Z,99798.02
2018-04-26T14:56:28.090Z,99780.26
2018-04-26T14:58:54.163Z,99780.79
2018-04-26T15:01:20.130Z,99779.31
2018-04-26T15:03:46.188Z,99789.01
2018-04-26T15:06:12.115Z,99786.78
2018-04-26T15:08:38.072Z,99785.13
2018-04-26T15:11:04.092Z,99781.72
2018-04-26T15:13:30.048Z,99777.67
2018-04-26T15:15:56.004Z,99773.77
2018-04-26T15:18:21.953Z,99773.66
2018-04-26T15:20:47.893Z,99773.66
2018-04-26T15:23:13.856Z,99776.30
2018-04-26T15:25:39.800Z,99767.78
2018-04-26T15:28:05.764Z,99778.09
2018-04-26T15:30:31.729Z,99774.91
2018-04-26T15:32:57.757Z,99775.47
2018-04-26T15:35:23.711Z,99776.00
2018-04-26T15:37:49.660Z,99766.03
2018-04-26T15:40:15.620Z,99778.70
2018-04-26T15:42:41.600Z,99771.30
2018-04-26T15:45:07.550Z,99774.41
2018-04-26T15:47:33.511Z,99777.45
2018-04-26T15:49:59.539Z,99781.61
2018-04-26T15:52:25.455Z,99779.73
2018-04-26T15:54:51.420Z,99783.38
2018-04-26T15:57:17.360Z,99788.71
2018-04-26T15:59:43.341Z,99791.78
2018-04-26T16:02:09.341Z,99789.78
2018-04-26T16:04:35.278Z,99787.13
2018-04-26T16:07:01.214Z,99791.08
2018-04-26T16:09:27.260Z,99797.01
2018-04-26T16:11:53.178Z,99806.89
2018-04-26T16:14:19.672Z,99800.98
2018-04-26T16:16:46.924Z,99800.22
2018-04-26T16:19:12.917Z,99796.56
2018-04-26T16:21:38.865Z,99799.31
2018-04-26T16:24:04.814Z,99803.27
2018-04-26T16:26:30.782Z,99800.33
2018-04-26T16:28:56.739Z,99806.21
2018-04-26T16:31:22.670Z,99815.91
2018-04-26T16:33:48.619Z,99819.73
2018-04-26T16:36:14.554Z,99818.27
2018-04-26T16:38:40.496Z,99815.83
2018-04-26T16:41:06.465Z,99812.56
2018-04-26T16:43:32.440Z,99813.82
2018-04-26T16:45:58.410Z,99815.30
2018-04-26T16:48:24.381Z,99812.16
2018-04-26T16:50:50.319Z,99817.97
2018-04-26T16:53:16.274Z,99815.99
2018-04-26T16:55:42.210Z,99816.89
2018-04-26T16:58:08.136Z,99822.94
2018-04-26T17:00:34.090Z,99819.78
2018-04-26T17:03:00.041Z,99823.66
2018-04-26T17:05:26.000Z,99825.59
2018-04-26T17:07:51.945Z,99828.23
2018-04-26T17:10:17.916Z,99831.08
2018-04-26T17:12:43.857Z,99836.50
2018-04-26T17:15:09.836Z,99833.25
2018-04-26T17:17:35.794Z,99837.80
2018-04-26T17:20:01.752Z,99834.55
2018-04-26T17:22:27.782Z,99836.17
2018-04-26T17:24:53.716Z,99838.25
2018-04-26T17:27:19.788Z,99839.58
2018-04-26T17:29:45.765Z,99838.81
2018-04-26T17:32:11.733Z,99838.41
2018-04-26T17:34:37.780Z,99833.80
2018-04-26T17:37:03.710Z,99838.20
2018-04-26T17:39:30.712Z,99839.23
2018-04-26T17:41:56.752Z,99848.75
2018-04-26T17:44:22.713Z,99874.49
2018-04-26T17:46:48.656Z,99895.37
2018-04-26T17:49:14.600Z,99892.12
2018-04-26T17:51:40.527Z,99878.08
2018-04-26T17:54:06.473Z,99889.54
2018-04-26T17:56:32.423Z,99889.16
2018-04-26T17:58:58.550Z,99896.71
2018-04-26T18:01:24.522Z,99894.55
2018-04-26T18:03:50.448Z,99900.22
2018-04-26T18:06:16.400Z,99904.05
2018-04-26T18:08:42.349Z,99913.27
2018-04-26T18:11:08.281Z,99912.92
2018-04-26T18:13:36.295Z,99919.91
2018-04-26T18:16:02.278Z,99917.42
2018-04-26T18:18:28.250Z,99924.16
2018-04-26T18:20:54.225Z,99925.50
2018-04-26T18:23:20.190Z,99934.15
2018-04-26T18:25:46.157Z,99944.45
2018-04-26T18:28:12.212Z,99942.42
2018-04-26T18:30:38.198Z,99948.06
2018-04-26T18:33:04.169Z,99958.45
2018-04-26T18:35:30.134Z,99959.19
2018-04-26T18:37:56.210Z,99962.71
2018-04-26T18:40:22.173Z,99963.73
2018-04-26T18:42:48.153Z,99961.39
2018-04-26T18:45:14.113Z,99964.81
2018-04-26T18:47:40.073Z,99967.41
2018-04-26T18:50:06.032Z,99972.92
2018-04-26T18:52:32.002Z,99976.28
2018-04-26T18:54:57.942Z,99977.80
2018-04-26T18:57:23.901Z,99976.20
2018-04-26T18:59:50.943Z,99977.01
2018-04-26T19:02:16.973Z,99974.77
2018-04-26T19:04:42.928Z,99979.55
2018-04-26T19:07:08.853Z,99980.97
2018-04-26T19:09:34.786Z,99978.11
2018-04-26T19:12:00.766Z,99974.33
2018-04-26T19:14:26.713Z,99974.75
2018-04-26T19:16:52.660Z,99980.18
2018-04-26T19:19:18.601Z,99978.08
2018-04-26T19:21:44.568Z,99978.90
2018-04-26T19:24:10.526Z,99978.44
2018-04-26T19:26:36.488Z,99985.28
2018-04-26T19:29:02.493Z,99988.23
2018-04-26T19:31:28.543Z,99995.30
2018-04-26T19:33:54.531Z,100000.45
2018-04-26T19:36:20.492Z,99996.16
2018-04-26T19:38:46.420Z,99996.23
2018-04-26T19:41:12.368Z,99998.77
2018-04-26T19:43:38.333Z,99997.95
2018-04-26T19:46:04.393Z,99993.29
2018-04-26T19:48:30.381Z,99993.73
2018-04-26T19:50:56.337Z,99989.48
2018-04-26T19:53:22.274Z,99991.60
2018-04-26T19:55:48.213Z,99987.41
2018-04-26T19:58:14.168Z,99993.30
2018-04-26T20:00:40.192Z,99987.79
2018-04-26T20:03:06.221Z,99992.02
2018-04-26T20:05:32.144Z,99990.72
2018-04-26T20:07:58.075Z,99991.58
2018-04-26T20:10:24.010Z,99992.01
2018-04-26T20:12:51.040Z,100005.95
2018-04-26T20:15:17.042Z,99998.37
2018-04-26T20:17:44.002Z,99997.11
2018-04-26T20:20:10.017Z,99993.70
2018-04-26T20:22:35.965Z,100000.45
2018-04-26T20:25:01.924Z,99998.80
2018-04-26T20:27:27.918Z,100002.98
2018-04-26T20:29:53.898Z,100006.34
2018-04-26T20:32:19.845Z,100010.13
2018-04-26T20:34:45.801Z,100007.18
2018-04-26T20:37:11.769Z,100010.08
2018-04-26T20:39:37.726Z,100008.61
2018-04-26T20:42:03.694Z,100012.40
2018-04-26T20:44:29.652Z,100007.77
2018-04-26T20:46:55.593Z,100011.13
2018-04-26T20:49:21.554Z,99992.55
2018-04-26T20:51:47.509Z,100002.17
2018-04-26T20:54:13.458Z,100005.38
2018-04-26T20:56:39.428Z,100006.34
2018-04-26T20:59:05.361Z,100002.97
2018-04-26T21:01:31.314Z,100003.58
2018-04-26T21:03:57.243Z,100007.75
2018-04-26T21:06:23.192Z,100005.78
2018-04-26T21:08:49.172Z,100008.71
2018-04-26T21:11:15.132Z,100008.31
2018-04-26T21:13:41.090Z,100004.80
2018-04-26T21:16:07.088Z,100005.84
2018-04-26T21:18:33.048Z,100001.19
2018-04-26T21:20:58.971Z,100007.13
2018-04-26T21:23:24.940Z,100008.35
2018-04-26T21:25:50.868Z,100010.33
2018-04-26T21:28:16.826Z,100005.28
2018-04-26T21:30:42.791Z,100005.64
2018-04-26T21:33:08.748Z,100013.58
2018-04-26T21:35:34.794Z,100015.39
2018-04-26T21:38:00.998Z,100018.77
2018-04-26T21:40:26.961Z,100016.98
2018-04-26T21:42:52.939Z,100018.66
2018-04-26T21:45:18.906Z,100024.66
2018-04-26T21:47:46.915Z,100028.59
2018-04-26T21:50:12.869Z,100030.78
2018-04-26T21:52:38.837Z,100032.87
2018-04-26T21:55:04.774Z,100035.30
2018-04-26T21:57:30.912Z,100039.09
2018-04-26T21:59:56.978Z,100040.39
2018-04-26T22:02:22.926Z,100040.19
2018-04-26T22:04:48.905Z,100043.72
2018-04-26T22:07:14.847Z,100041.25
2018-04-26T22:09:40.793Z,100041.66
2018-04-26T22:12:06.833Z,100041.92
2018-04-26T22:14:32.794Z,100038.28
2018-04-26T22:16:58.771Z,100037.80
2018-04-26T22:19:24.723Z,100031.50
2018-04-26T22:21:50.753Z,100039.78
2018-04-26T22:24:16.698Z,100040.46
2018-04-26T22:26:42.656Z,100031.44
2018-04-26T22:29:08.660Z,100041.22
2018-04-26T22:31:34.627Z,100035.77
2018-04-26T22:34:00.604Z,100040.42
2018-04-26T22:36:26.544Z,100047.83
2018-04-26T22:38:52.484Z,100043.15
2018-04-26T22:41:18.447Z,100039.40
2018-04-26T22:43:44.431Z,100042.75
2018-04-26T22:46:10.374Z,100042.86
2018-04-26T22:48:36.320Z,100050.91
2018-04-26T22:51:02.271Z,100053.08
2018-04-26T22:53:28.234Z,100043.13
2018-04-26T22:55:54.156Z,100044.94
2018-04-26T22:58:20.267Z,100046.94
2018-04-26T23:00:46.193Z,100049.05
2018-04-26T23:03:12.124Z,100056.30
2018-04-26T23:05:38.057Z,100045.06
2018-04-26T23:08:03.998Z,100048.73
2018-04-26T23:10:29.951Z,100047.22
2018-04-26T23:12:55.893Z,100053.63
2018-04-26T23:15:21.872Z,100049.94
2018-04-26T23:17:47.821Z,100048.89
2018-04-26T23:20:14.680Z,100047.99
2018-04-26T23:22:40.776Z,100038.13
2018-04-26T23:25:06.707Z,100046.80
2018-04-26T23:27:32.646Z,100052.48
2018-04-26T23:29:58.650Z,100057.27
2018-04-26T23:32:24.616Z,100060.71
2018-04-26T23:34:50.588Z,100064.41
2018-04-26T23:37:16.537Z,100059.29
2018-04-26T23:39:42.507Z,100060.13
2018-04-26T23:42:08.488Z,100064.48
2018-04-26T23:44:34.438Z,100070.84
2018-04-26T23:47:00.412Z,100079.45
2018-04-26T23:49:26.348Z,100072.95
2018-04-26T23:51:52.311Z,100069.42
2018-04-26T23:54:18.267Z,100064.89
2018-04-26T23:56:44.191Z,100062.37
2018-04-26T23:59:10.125Z,100060.22
